Voyager Of The Seas — C6SE5 — position and weather

sailwx.info

Track history (hours):
 
Tides and Currents Weather Stations Pressure Air Temp Water Temp Dewpoint Dewpoint Depression Visibility Wind Speed Wind Dir Waves Ship Positions

Voyager Of The Seas

Operator: Royal Caribbean Cruises Ltd

Last reported at 2016-May-17 04:33 UTC. Time now 2016-May-28 21:55 UTC.
Position N 22°12' E 114°30'.
Warning: this ship's position is 11 days out of date.

Type: Passenger vessel. MMSI: 311317000.

Date/timePositionNaut miles runAvg speedWind from/ knotsBaromVisibWave heightAir tempDewpointWater temp
2016-May-17 04:33N 22°12' E 114°30'1414.5
2016-May-17 03:33N 22°17' E 114°15'2 2.2
2016-May-17 02:28N 22°18' E 114°13'0 0.0
2016-May-17 01:31N 22°18' E 114°13'0 0.0
2016-May-17 00:31N 22°18' E 114°13'0 0.0
2016-May-16 23:31N 22°18' E 114°13'0 0.2
2016-May-16 22:33N 22°18' E 114°13'1310.7
2016-May-16 21:21N 22°10' E 114°24'  
2016-May-10 10:33N 01°16' E 104°11'1717.1
2016-May-10 09:33N 01°13' E 103°54'4 4.0
2016-May-10 08:34N 01°16' E 103°52'0 0.0
2016-May-10 07:25N 01°16' E 103°52'0 0.0
2016-May-10 06:28N 01°16' E 103°52'0 0.0
2016-May-10 05:28N 01°16' E 103°52'0 0.0
2016-May-10 03:28N 01°16' E 103°52'0 0.0
2016-May-10 02:31N 01°16' E 103°52'0 0.0
2016-May-10 01:31N 01°16' E 103°52'0 0.0
2016-May-10 00:31N 01°16' E 103°52'0 0.0
2016-May-09 23:31N 01°16' E 103°52'0 0.0
2016-May-09 22:31N 01°16' E 103°52'0 0.0
2016-May-09 21:33N 01°16' E 103°52'5 4.7
2016-May-09 20:33N 01°11' E 103°51'1211.5
2016-May-09 19:33N 01°04' E 103°42'1110.8
2016-May-09 18:33N 01°08' E 103°31'98 2.0
2016-May-07 17:31N 02°03' E 102°10'1515.0
2016-May-07 16:32N 01°55' E 102°22'1514.1
2016-May-07 15:28N 01°49' E 102°36'1213.0
2016-May-07 14:31N 01°43' E 102°47'5614.0
2016-May-07 10:28N 01°12' E 103°34'1516.4
2016-May-07 09:33N 01°11' E 103°49'6 5.6
2016-May-07 08:32N 01°16' E 103°52'0 0.0
2016-May-07 07:32N 01°16' E 103°52'0 0.0
2016-May-07 06:32N 01°16' E 103°52'0 0.0
2016-May-07 05:32N 01°16' E 103°52'  
Track history (hours):
 
Tides and Currents Weather Stations Pressure Air Temp Water Temp Dewpoint Dewpoint Depression Visibility Wind Speed Wind Dir Waves Ship Positions

Voyager Of The Seas

Operator: Royal Caribbean Cruises Ltd

Last reported at 2016-May-17 04:33 UTC. Time now 2016-May-28 21:55 UTC.
Position N 22°12' E 114°30'.
Warning: this ship's position is 11 days out of date.

Type: Passenger vessel. MMSI: 311317000.

Date/timePositionNaut miles runAvg speedWind from/ knotsBaromVisibWave heightAir tempDewpointWater temp
2016-May-17 04:33N 22°12' E 114°30'1414.5
2016-May-17 03:33N 22°17' E 114°15'2 2.2
2016-May-17 02:28N 22°18' E 114°13'0 0.0
2016-May-17 01:31N 22°18' E 114°13'0 0.0
2016-May-17 00:31N 22°18' E 114°13'0 0.0
2016-May-16 23:31N 22°18' E 114°13'0 0.2
2016-May-16 22:33N 22°18' E 114°13'1310.7
2016-May-16 21:21N 22°10' E 114°24'  
2016-May-10 10:33N 01°16' E 104°11'1717.1
2016-May-10 09:33N 01°13' E 103°54'4 4.0
2016-May-10 08:34N 01°16' E 103°52'0 0.0
2016-May-10 07:25N 01°16' E 103°52'0 0.0
2016-May-10 06:28N 01°16' E 103°52'0 0.0
2016-May-10 05:28N 01°16' E 103°52'0 0.0
2016-May-10 03:28N 01°16' E 103°52'0 0.0
2016-May-10 02:31N 01°16' E 103°52'0 0.0
2016-May-10 01:31N 01°16' E 103°52'0 0.0
2016-May-10 00:31N 01°16' E 103°52'0 0.0
2016-May-09 23:31N 01°16' E 103°52'0 0.0
2016-May-09 22:31N 01°16' E 103°52'0 0.0
2016-May-09 21:33N 01°16' E 103°52'5 4.7
2016-May-09 20:33N 01°11' E 103°51'1211.5
2016-May-09 19:33N 01°04' E 103°42'1110.8
2016-May-09 18:33N 01°08' E 103°31'98 2.0
2016-May-07 17:31N 02°03' E 102°10'1515.0
2016-May-07 16:32N 01°55' E 102°22'1514.1
2016-May-07 15:28N 01°49' E 102°36'1213.0
2016-May-07 14:31N 01°43' E 102°47'5614.0
2016-May-07 10:28N 01°12' E 103°34'1516.4
2016-May-07 09:33N 01°11' E 103°49'6 5.6
2016-May-07 08:32N 01°16' E 103°52'0 0.0
2016-May-07 07:32N 01°16' E 103°52'0 0.0
2016-May-07 06:32N 01°16' E 103°52'0 0.0
2016-May-07 05:32N 01°16' E 103°52'  

Dump ship's entire track history